createdAt,value
2018-12-26T00:03:31.006Z,11.10
2018-12-26T00:07:34.393Z,9.57
2018-12-26T00:11:36.811Z,10.10
2018-12-26T00:15:39.186Z,15.17
2018-12-26T00:19:41.666Z,16.30
2018-12-26T00:23:43.959Z,14.27
2018-12-26T00:27:46.295Z,15.47
2018-12-26T00:31:48.633Z,13.73
2018-12-26T00:35:50.985Z,12.87
2018-12-26T00:39:53.352Z,14.70
2018-12-26T00:43:55.890Z,13.57
2018-12-26T00:47:58.284Z,11.67
2018-12-26T00:52:00.614Z,11.60
2018-12-26T00:56:10.230Z,12.13
2018-12-26T01:00:05.849Z,12.13
2018-12-26T01:04:08.277Z,16.37
2018-12-26T01:08:10.625Z,16.40
2018-12-26T01:12:13.554Z,15.60
2018-12-26T01:16:16.133Z,17.03
2018-12-26T01:20:18.579Z,15.60
2018-12-26T01:24:20.879Z,17.70
2018-12-26T01:28:23.247Z,15.57
2018-12-26T01:32:27.253Z,15.37
2018-12-26T01:36:29.611Z,15.23
2018-12-26T01:40:32.252Z,15.37
2018-12-26T01:44:34.685Z,16.87
2018-12-26T01:48:36.979Z,16.90
2018-12-26T01:52:39.324Z,17.30
2018-12-26T01:56:41.697Z,14.90
2018-12-26T02:00:44.050Z,16.27
2018-12-26T02:04:46.408Z,13.90
2018-12-26T02:08:48.730Z,13.63
2018-12-26T02:12:51.116Z,14.77
2018-12-26T02:16:53.453Z,12.90
2018-12-26T02:20:55.899Z,13.20
2018-12-26T02:24:58.293Z,13.13
2018-12-26T02:29:00.645Z,17.30
2018-12-26T02:33:03.033Z,13.87
2018-12-26T02:37:05.379Z,13.83
2018-12-26T02:41:07.723Z,13.93
2018-12-26T02:45:10.095Z,13.23
2018-12-26T02:49:12.431Z,13.63
2018-12-26T02:53:14.824Z,13.50
2018-12-26T02:57:17.165Z,13.40
2018-12-26T03:01:19.533Z,14.13
2018-12-26T03:05:21.832Z,16.03
2018-12-26T03:09:24.192Z,14.90
2018-12-26T03:13:26.554Z,15.67
2018-12-26T03:17:28.859Z,13.27
2018-12-26T03:21:31.195Z,12.53
2018-12-26T03:25:33.550Z,12.93
2018-12-26T03:29:35.850Z,12.93
2018-12-26T03:33:38.182Z,14.00
2018-12-26T03:37:40.644Z,12.73
2018-12-26T03:41:43.031Z,13.27
2018-12-26T03:45:45.416Z,13.33
2018-12-26T03:49:47.797Z,14.73
2018-12-26T03:53:50.178Z,15.03
2018-12-26T03:57:52.596Z,13.83
2018-12-26T04:01:55.029Z,14.17
2018-12-26T04:05:57.385Z,13.10
2018-12-26T04:09:59.838Z,13.00
2018-12-26T04:14:02.164Z,13.73
2018-12-26T04:18:05.038Z,14.47
2018-12-26T04:22:07.512Z,12.63
2018-12-26T04:26:09.803Z,14.90
2018-12-26T04:30:12.157Z,12.30
2018-12-26T04:34:14.499Z,14.77
2018-12-26T04:38:16.828Z,14.60
2018-12-26T04:42:19.209Z,13.87
2018-12-26T04:46:21.561Z,14.40
2018-12-26T04:50:23.939Z,15.33
2018-12-26T04:54:26.263Z,16.70
2018-12-26T04:58:28.577Z,13.77
2018-12-26T05:02:30.957Z,17.53
2018-12-26T05:06:33.262Z,16.13
2018-12-26T05:10:35.575Z,14.87
2018-12-26T05:14:37.938Z,14.67
2018-12-26T05:18:40.271Z,14.37
2018-12-26T05:22:42.654Z,15.80
2018-12-26T05:26:45.071Z,16.37
2018-12-26T05:30:47.450Z,15.93
2018-12-26T05:34:49.872Z,17.47
2018-12-26T05:38:52.218Z,14.60
2018-12-26T05:42:54.541Z,15.03
2018-12-26T05:46:56.838Z,15.37
2018-12-26T05:50:59.204Z,16.83
2018-12-26T05:55:01.519Z,15.50
2018-12-26T05:59:03.881Z,13.33
2018-12-26T06:03:06.243Z,17.70
2018-12-26T06:07:08.651Z,16.33
2018-12-26T06:11:10.971Z,16.67
2018-12-26T06:15:13.320Z,15.47
2018-12-26T06:19:15.687Z,16.00
2018-12-26T06:23:17.961Z,14.13
2018-12-26T06:27:20.344Z,17.20
2018-12-26T06:31:22.703Z,14.10
2018-12-26T06:35:25.002Z,14.00
2018-12-26T06:39:27.411Z,14.40
2018-12-26T06:43:29.783Z,16.13
2018-12-26T06:47:32.177Z,16.70
2018-12-26T06:51:34.521Z,16.87
2018-12-26T06:55:36.908Z,16.97
2018-12-26T06:59:39.270Z,27.20
2018-12-26T07:03:41.610Z,27.57
2018-12-26T07:07:43.846Z,19.43
2018-12-26T07:11:46.247Z,22.97
2018-12-26T07:15:48.571Z,14.53
2018-12-26T07:19:50.887Z,14.33
2018-12-26T07:23:53.206Z,15.43
2018-12-26T07:27:55.544Z,15.10
2018-12-26T07:31:57.885Z,15.47
2018-12-26T07:36:00.239Z,13.97
2018-12-26T07:40:02.585Z,17.33
2018-12-26T07:44:04.909Z,18.37
2018-12-26T07:48:07.228Z,22.27
2018-12-26T07:52:09.566Z,22.87
2018-12-26T07:56:11.911Z,31.70
2018-12-26T08:00:14.270Z,25.13
2018-12-26T08:04:16.653Z,22.40
2018-12-26T08:08:19.028Z,21.57
2018-12-26T08:12:21.395Z,18.87
2018-12-26T08:16:23.716Z,20.13
2018-12-26T08:20:26.146Z,22.23
2018-12-26T08:24:28.445Z,15.50
2018-12-26T08:28:30.815Z,16.50
2018-12-26T08:32:33.202Z,16.10
2018-12-26T08:36:35.638Z,14.43
2018-12-26T08:40:37.982Z,13.67
2018-12-26T08:44:40.295Z,12.97
2018-12-26T08:48:42.695Z,13.13
2018-12-26T08:52:45.017Z,11.30
2018-12-26T08:56:47.401Z,12.70
2018-12-26T09:00:49.774Z,13.27
2018-12-26T09:04:52.211Z,11.13
2018-12-26T09:08:54.555Z,11.23
2018-12-26T09:12:56.891Z,10.17
2018-12-26T09:16:59.230Z,11.63
2018-12-26T09:21:01.664Z,10.40
2018-12-26T09:25:04.115Z,12.90
2018-12-26T09:29:06.511Z,12.70
2018-12-26T09:33:08.866Z,11.30
2018-12-26T09:37:11.294Z,11.87
2018-12-26T09:41:13.673Z,10.47
2018-12-26T09:45:16.000Z,9.37
2018-12-26T09:49:18.373Z,9.87
2018-12-26T09:53:20.740Z,11.33
2018-12-26T09:57:23.110Z,11.23
2018-12-26T10:01:25.449Z,11.83
2018-12-26T10:05:27.835Z,12.57
2018-12-26T10:09:30.189Z,13.23
2018-12-26T10:13:32.554Z,13.07
2018-12-26T10:17:34.944Z,13.30
2018-12-26T10:21:37.330Z,17.03
2018-12-26T10:25:40.064Z,15.63
2018-12-26T10:29:42.458Z,12.43
2018-12-26T10:33:44.815Z,14.43
2018-12-26T10:37:47.258Z,15.13
2018-12-26T10:41:49.598Z,14.67
2018-12-26T10:45:51.954Z,12.83
2018-12-26T10:49:55.280Z,12.67
2018-12-26T10:53:57.557Z,11.93
2018-12-26T10:57:59.936Z,14.87
2018-12-26T11:02:02.284Z,16.00
2018-12-26T11:06:04.723Z,14.77
2018-12-26T11:10:07.052Z,12.73
2018-12-26T11:14:09.662Z,11.00
2018-12-26T11:18:12.019Z,10.30
2018-12-26T11:22:14.418Z,10.60
2018-12-26T11:26:16.839Z,9.63
2018-12-26T11:30:19.199Z,11.40
2018-12-26T11:34:22.178Z,11.03
2018-12-26T11:38:24.564Z,13.10
2018-12-26T11:42:26.903Z,10.97
2018-12-26T11:46:29.460Z,11.17
2018-12-26T11:50:31.869Z,12.83
2018-12-26T11:54:34.310Z,12.13
2018-12-26T11:58:36.667Z,13.37
2018-12-26T12:02:40.964Z,13.90
2018-12-26T12:06:43.373Z,12.93
2018-12-26T12:10:45.838Z,12.57
2018-12-26T12:14:48.252Z,11.93
2018-12-26T12:18:50.617Z,11.53
2018-12-26T12:22:54.449Z,11.00
2018-12-26T12:26:56.762Z,10.13
2018-12-26T12:30:59.258Z,11.63
2018-12-26T12:35:01.666Z,10.40
2018-12-26T12:39:06.090Z,10.43
2018-12-26T12:43:08.420Z,20.30
2018-12-26T12:47:10.814Z,21.77
2018-12-26T12:51:13.273Z,20.63
2018-12-26T12:55:15.655Z,22.50
2018-12-26T12:59:18.142Z,25.33
2018-12-26T13:03:20.507Z,35.27
2018-12-26T13:07:22.906Z,26.37
2018-12-26T13:11:25.262Z,28.03
2018-12-26T13:15:27.703Z,23.30
2018-12-26T13:19:31.817Z,25.13
2018-12-26T13:23:34.243Z,27.80
2018-12-26T13:27:36.668Z,26.70
2018-12-26T13:31:39.114Z,26.13
2018-12-26T13:35:41.453Z,25.57
2018-12-26T13:39:44.382Z,25.97
2018-12-26T13:43:46.814Z,24.67
2018-12-26T13:47:49.149Z,23.77
2018-12-26T13:51:51.463Z,26.53
2018-12-26T13:55:53.880Z,24.47
2018-12-26T14:00:02.223Z,23.73
2018-12-26T14:03:58.641Z,26.53
2018-12-26T14:08:01.051Z,24.13
2018-12-26T14:12:03.453Z,26.60
2018-12-26T14:16:05.773Z,23.87
2018-12-26T14:20:08.192Z,27.90
2018-12-26T14:24:10.521Z,26.07
2018-12-26T14:28:13.436Z,28.37
2018-12-26T14:32:15.800Z,25.37
2018-12-26T14:36:18.354Z,25.70
2018-12-26T14:40:20.842Z,23.40
2018-12-26T14:44:23.454Z,25.70
2018-12-26T14:48:25.851Z,29.10
2018-12-26T14:52:28.217Z,29.73
2018-12-26T14:56:30.622Z,28.23
2018-12-26T15:00:33.198Z,26.33
2018-12-26T15:04:37.107Z,29.00
2018-12-26T15:08:39.537Z,27.83
2018-12-26T15:12:42.152Z,31.73
2018-12-26T15:16:45.062Z,26.60
2018-12-26T15:20:47.427Z,29.77
2018-12-26T15:24:49.883Z,29.23
2018-12-26T15:28:52.766Z,30.23
2018-12-26T15:32:55.107Z,28.13
2018-12-26T15:36:57.531Z,28.87
2018-12-26T15:40:59.914Z,29.03
2018-12-26T15:45:02.315Z,31.50
2018-12-26T15:49:04.677Z,26.63
2018-12-26T15:53:07.181Z,28.83
2018-12-26T15:57:09.602Z,26.93
2018-12-26T16:01:11.998Z,30.23
2018-12-26T16:05:14.326Z,27.30
2018-12-26T16:09:16.745Z,28.20
2018-12-26T16:13:19.072Z,27.50
2018-12-26T16:17:21.451Z,35.33
2018-12-26T16:21:23.882Z,35.80
2018-12-26T16:25:26.241Z,32.23
2018-12-26T16:29:28.682Z,41.43
2018-12-26T16:33:31.136Z,37.47
2018-12-26T16:37:33.607Z,37.23
2018-12-26T16:41:35.955Z,41.07
2018-12-26T16:45:38.310Z,31.77
2018-12-26T16:49:40.669Z,42.77
2018-12-26T16:53:43.061Z,36.10
2018-12-26T16:57:45.396Z,34.93
2018-12-26T17:01:47.791Z,36.77
2018-12-26T17:05:50.185Z,37.17
2018-12-26T17:09:52.552Z,36.87
2018-12-26T17:13:54.940Z,36.17
2018-12-26T17:17:57.285Z,40.07
2018-12-26T17:21:59.661Z,41.87
2018-12-26T17:26:02.080Z,38.27
2018-12-26T17:30:04.974Z,38.37
2018-12-26T17:34:07.446Z,32.07
2018-12-26T17:38:09.835Z,36.23
2018-12-26T17:42:12.344Z,37.40
2018-12-26T17:46:14.785Z,34.80
2018-12-26T17:50:28.464Z,35.20
2018-12-26T17:54:38.275Z,32.47
2018-12-26T17:58:47.476Z,34.27
2018-12-26T18:02:49.859Z,34.00
2018-12-26T18:06:52.246Z,35.83
2018-12-26T18:10:54.671Z,33.17
2018-12-26T18:14:57.032Z,33.17
2018-12-26T18:18:59.369Z,32.20
2018-12-26T18:23:01.765Z,32.50
2018-12-26T18:27:04.257Z,33.40
2018-12-26T18:31:06.676Z,39.00
2018-12-26T18:35:09.682Z,67.03
2018-12-26T18:39:12.036Z,39.13
2018-12-26T18:43:14.419Z,37.77
2018-12-26T18:47:16.789Z,41.13
2018-12-26T18:51:19.231Z,35.10
2018-12-26T18:55:21.641Z,38.90
2018-12-26T18:59:24.069Z,36.90
2018-12-26T19:03:26.419Z,38.70
2018-12-26T19:07:28.784Z,46.93
2018-12-26T19:11:31.149Z,41.23
2018-12-26T19:15:33.535Z,42.63
2018-12-26T19:19:35.913Z,39.47
2018-12-26T19:23:38.274Z,41.70
2018-12-26T19:27:40.651Z,38.33
2018-12-26T19:31:43.778Z,34.67
2018-12-26T19:35:46.345Z,40.27
2018-12-26T19:39:48.788Z,37.83
2018-12-26T19:43:51.319Z,47.97
2018-12-26T19:47:53.990Z,45.70
2018-12-26T19:51:56.366Z,44.80
2018-12-26T19:55:58.770Z,39.63
2018-12-26T20:00:01.244Z,44.43
2018-12-26T20:04:03.739Z,45.63
2018-12-26T20:08:06.203Z,41.17
2018-12-26T20:12:09.435Z,46.37
2018-12-26T20:16:11.917Z,41.53
2018-12-26T20:20:14.317Z,45.40
2018-12-26T20:24:16.752Z,38.23
2018-12-26T20:28:19.720Z,41.10
2018-12-26T20:32:21.715Z,39.67
2018-12-26T20:36:24.310Z,34.50
2018-12-26T20:40:26.724Z,36.60
2018-12-26T20:44:29.254Z,38.10
2018-12-26T20:48:31.785Z,37.27
2018-12-26T20:52:34.149Z,38.30
2018-12-26T20:56:36.711Z,36.00
2018-12-26T21:00:39.209Z,34.90
2018-12-26T21:04:41.973Z,36.60
2018-12-26T21:08:44.583Z,37.53
2018-12-26T21:12:47.058Z,40.70
2018-12-26T21:16:55.003Z,35.13
2018-12-26T21:20:51.915Z,35.40
2018-12-26T21:24:54.319Z,36.13
2018-12-26T21:29:02.245Z,40.33
2018-12-26T21:33:12.173Z,37.10
2018-12-26T21:37:17.839Z,36.80
2018-12-26T21:41:33.773Z,38.33
2018-12-26T21:45:45.141Z,36.87
2018-12-26T21:49:55.121Z,37.23
2018-12-26T21:53:59.738Z,43.40
2018-12-26T21:58:03.478Z,38.33
2018-12-26T22:02:05.552Z,41.60
2018-12-26T22:06:07.898Z,43.63
2018-12-26T22:10:10.299Z,42.13
2018-12-26T22:14:12.777Z,38.30
2018-12-26T22:18:15.166Z,36.90
2018-12-26T22:22:17.544Z,65.70
2018-12-26T22:26:20.078Z,45.10
2018-12-26T22:30:22.572Z,39.13
2018-12-26T22:34:25.075Z,34.47
2018-12-26T22:38:27.801Z,36.90
2018-12-26T22:42:30.403Z,40.83
2018-12-26T22:46:32.761Z,34.20
2018-12-26T22:50:35.254Z,39.53
2018-12-26T22:54:37.964Z,34.90
2018-12-26T22:58:40.388Z,30.57
2018-12-26T23:02:42.942Z,35.67
2018-12-26T23:06:45.448Z,34.17
2018-12-26T23:10:47.938Z,43.70
2018-12-26T23:14:50.424Z,33.60
2018-12-26T23:18:52.804Z,34.57
2018-12-26T23:22:55.201Z,34.87
2018-12-26T23:26:57.527Z,34.13
2018-12-26T23:30:59.908Z,31.80
2018-12-26T23:35:02.397Z,33.17
2018-12-26T23:39:06.224Z,35.43
2018-12-26T23:43:08.591Z,34.67
2018-12-26T23:47:11.171Z,37.77
2018-12-26T23:51:13.886Z,44.17
2018-12-26T23:55:16.433Z,46.07
2018-12-26T23:59:18.863Z,31.87
